EGAE/LDY METAR and TAF weather

Enter ICAO airport designator
Station Type Date Time Source
EGAE METAR 2021/03/04 17:50 UTC NOAA

EGAE 041750Z 10011KT 9999 FEW016 SCT023 BKN037 06/03 Q1030


Station Type Date Time Source
EGAE Decoded METAR 2021/03/04 17:50 UTC NOAA

Eglinton / Londonderr, United Kingdom (EGAE) 55-03N 007-09W
Mar 04, 2021 - 12:50 PM EST / 2021.03.04 1750 UTC
Wind: from the E (100 degrees) at 13 MPH (11 KT):0
Visibility: greater than 7 mile(s):0
Sky conditions: mostly cloudy
Temperature: 42 F (6 C)
Dew Point: 37 F (3 C)
Relative Humidity: 81%
Pressure (altimeter): 30.42 in. Hg (1030 hPa)
ob: EGAE 041750Z 10011KT 9999 FEW016 SCT023 BKN037 06/03 Q1030
cycle: 18

Station Type Date Time Source
EGAE TAF UTC NOAA

Error!

Example: see airport list